Time;durP1;ratioP1;P1;durP2;ratioP2;P2;SDS_P1;SDS_P2;PMS_P1;PMS_P2;Temp;Humidity;BMP_temperature;BMP_pressure;BME280_temperature;BME280_humidity;BME280_pressure;Samples;Min_cycle;Max_cycle;Signal;HPM_P1;HPM_P2
2022/04/24 00:00:50;;;;;;;7.80;6.17;;;23.40;51.70;;;;;;5013301;28;20660;-86
2022/04/24 00:03:16;;;;;;;7.10;5.90;;;23.40;51.70;;;;;;5014993;28;20200;-86
2022/04/24 00:05:42;;;;;;;7.47;6.03;;;23.40;51.70;;;;;;5014252;28;20416;-86
2022/04/24 00:08:08;;;;;;;7.27;6.37;;;23.40;51.70;;;;;;5013857;28;21113;-86
2022/04/24 00:10:35;;;;;;;6.90;5.87;;;23.40;51.70;;;;;;5013557;28;20425;-87
2022/04/24 00:13:03;;;;;;;7.23;6.30;;;23.40;51.70;;;;;;5013945;28;20418;-87
2022/04/24 00:15:30;;;;;;;6.43;5.53;;;23.40;51.70;;;;;;5031125;28;20470;-86
2022/04/24 00:17:56;;;;;;;7.73;5.97;;;23.40;51.70;;;;;;5012885;28;20526;-86
2022/04/24 00:20:21;;;;;;;6.37;5.67;;;23.40;51.70;;;;;;5031533;28;20415;-86
2022/04/24 00:22:47;;;;;;;7.20;6.40;;;23.40;51.70;;;;;;5014113;28;20183;-87
2022/04/24 00:25:13;;;;;;;8.10;5.57;;;23.40;51.70;;;;;;5031161;28;20177;-86
2022/04/24 00:27:39;;;;;;;5.37;4.87;;;23.40;51.70;;;;;;5031390;28;20204;-86
2022/04/24 00:30:05;;;;;;;6.80;5.73;;;23.40;51.70;;;;;;5031508;28;20168;-86
2022/04/24 00:32:31;;;;;;;5.90;5.30;;;23.40;51.70;;;;;;5013794;28;20211;-86
2022/04/24 00:34:57;;;;;;;6.90;6.20;;;23.40;51.70;;;;;;5031317;28;20458;-85
2022/04/24 00:37:25;;;;;;;7.40;6.20;;;23.40;51.70;;;;;;5014928;28;20173;-86
2022/04/24 00:39:50;;;;;;;7.77;5.97;;;23.40;51.70;;;;;;5014743;28;20423;-85
2022/04/24 00:42:18;;;;;;;6.80;5.40;;;23.40;51.70;;;;;;5014437;28;20852;-85
2022/04/24 00:44:44;;;;;;;6.87;6.17;;;23.40;51.70;;;;;;4997806;28;20177;-86
2022/04/24 00:47:18;;;;;;;7.97;6.33;;;23.40;51.70;;;;;;5013919;28;20493;-86
2022/04/24 00:49:45;;;;;;;6.17;5.00;;;23.40;51.70;;;;;;5031582;28;20168;-86
2022/04/24 00:52:12;;;;;;;6.70;5.50;;;23.40;51.70;;;;;;5031111;28;20391;-86
2022/04/24 00:54:38;;;;;;;6.60;5.57;;;23.40;51.70;;;;;;5013673;28;20502;-86
2022/04/24 00:57:14;;;;;;;6.30;5.53;;;23.40;51.70;;;;;;5012128;28;20421;-86
2022/04/24 00:59:40;;;;;;;7.30;5.60;;;23.40;51.70;;;;;;5029952;28;20395;-86
2022/04/24 01:02:07;;;;;;;8.20;5.07;;;23.40;51.70;;;;;;5020606;28;20447;-86
2022/04/24 01:04:35;;;;;;;5.73;5.10;;;23.40;51.70;;;;;;5013994;28;20420;-86
2022/04/24 01:07:01;;;;;;;6.40;5.50;;;23.40;51.70;;;;;;5015143;28;20455;-87
2022/04/24 01:09:28;;;;;;;6.73;5.20;;;23.40;51.70;;;;;;4998673;28;20443;-86
2022/04/24 01:11:55;;;;;;;5.70;4.93;;;23.40;51.70;;;;;;4998631;28;20487;-86
2022/04/24 01:14:25;;;;;;;5.60;4.53;;;23.40;51.70;;;;;;4997837;28;20424;-86
2022/04/24 01:16:52;;;;;;;6.53;5.50;;;23.40;51.70;;;;;;4998009;28;20451;-86
2022/04/24 01:19:18;;;;;;;6.13;5.40;;;23.40;51.70;;;;;;4998178;28;20476;-87
2022/04/24 01:21:46;;;;;;;5.80;4.47;;;23.40;51.70;;;;;;4997983;28;20416;-86
2022/04/24 01:24:14;;;;;;;7.43;5.60;;;23.40;51.70;;;;;;4981915;28;20445;-86
2022/04/24 01:26:41;;;;;;;5.30;4.47;;;23.40;51.70;;;;;;4998153;28;20431;-86
2022/04/24 01:29:09;;;;;;;5.50;5.00;;;23.40;51.70;;;;;;5033079;28;20422;-86
2022/04/24 01:31:36;;;;;;;6.20;4.80;;;23.40;51.60;;;;;;5017423;28;20414;-86
2022/04/24 01:34:02;;;;;;;6.47;5.20;;;23.40;51.60;;;;;;5016912;28;20438;-86
2022/04/24 01:36:28;;;;;;;7.67;6.17;;;23.40;51.60;;;;;;5017739;28;20439;-86
2022/04/24 01:38:54;;;;;;;5.77;5.17;;;23.40;51.60;;;;;;5034202;28;20172;-86
2022/04/24 01:41:19;;;;;;;6.27;5.63;;;23.40;51.60;;;;;;5017191;28;20426;-86
2022/04/24 01:43:47;;;;;;;5.33;4.73;;;23.40;51.60;;;;;;5033791;28;20232;-87
2022/04/24 01:46:13;;;;;;;6.27;4.67;;;23.40;51.60;;;;;;5034016;28;20654;-87
2022/04/24 01:48:39;;;;;;;6.63;4.73;;;23.40;51.70;;;;;;5016349;28;20463;-86
2022/04/24 01:51:09;;;;;;;5.87;4.97;;;23.40;51.60;;;;;;5016576;28;20510;-86
2022/04/24 01:53:35;;;;;;;6.47;5.37;;;23.40;51.60;;;;;;5016876;28;20427;-86
2022/04/24 01:56:05;;;;;;;5.30;4.77;;;23.40;51.60;;;;;;5033781;28;20539;-86
2022/04/24 01:58:31;;;;;;;5.73;4.53;;;23.40;51.60;;;;;;5015856;28;20423;-86
2022/04/24 02:00:57;;;;;;;5.10;4.60;;;23.30;51.60;;;;;;5014194;28;20419;-86
2022/04/24 02:03:24;;;;;;;5.47;4.97;;;23.40;51.60;;;;;;5033264;28;20487;-87
2022/04/24 02:05:50;;;;;;;5.20;4.70;;;23.40;51.60;;;;;;5032463;28;20434;-86
2022/04/24 02:08:16;;;;;;;5.20;4.57;;;23.40;51.70;;;;;;5011278;28;20471;-86
2022/04/24 02:10:42;;;;;;;5.03;4.53;;;23.40;51.60;;;;;;5012611;28;20177;-87
2022/04/24 02:13:08;;;;;;;5.93;5.20;;;23.40;51.70;;;;;;5012016;28;20197;-86
2022/04/24 02:15:36;;;;;;;5.47;4.60;;;23.40;51.60;;;;;;5012567;28;20463;-86
2022/04/24 02:18:02;;;;;;;5.57;4.60;;;23.40;51.60;;;;;;5012616;28;20448;-86
2022/04/24 02:20:29;;;;;;;5.47;4.97;;;23.30;51.60;;;;;;5013603;28;20413;-86
2022/04/24 02:22:57;;;;;;;5.10;4.60;;;23.40;51.60;;;;;;5013109;28;20436;-86
2022/04/24 02:25:25;;;;;;;5.70;4.30;;;23.40;51.70;;;;;;5012980;28;20984;-87
2022/04/24 02:27:54;;;;;;;6.03;4.80;;;23.40;51.70;;;;;;5013836;28;20458;-86
2022/04/24 02:30:22;;;;;;;5.90;5.27;;;23.40;51.70;;;;;;5013502;28;20503;-86
2022/04/24 02:32:48;;;;;;;5.00;4.33;;;23.40;51.60;;;;;;5012552;28;20451;-86
2022/04/24 02:35:14;;;;;;;7.00;4.93;;;23.40;51.60;;;;;;5011940;28;20416;-87
2022/04/24 02:37:39;;;;;;;5.63;5.03;;;23.40;51.60;;;;;;5011200;28;20431;-85
2022/04/24 02:40:10;;;;;;;5.50;4.60;;;23.40;51.60;;;;;;5012503;28;20215;-86
2022/04/24 02:42:36;;;;;;;4.70;4.20;;;23.40;51.60;;;;;;5000940;28;20202;-86
2022/04/24 02:45:08;;;;;;;5.20;4.50;;;23.40;51.60;;;;;;5033569;28;20795;-86
2022/04/24 02:47:40;;;;;;;5.73;4.67;;;23.40;51.60;;;;;;5033646;28;20475;-86
2022/04/24 02:50:07;;;;;;;5.07;4.60;;;23.40;51.60;;;;;;5016444;28;20491;-86
2022/04/24 02:52:43;;;;;;;5.60;4.60;;;23.40;51.70;;;;;;5013786;28;20436;-86
2022/04/24 02:55:09;;;;;;;5.50;4.83;;;23.40;51.60;;;;;;5014076;28;20403;-86
2022/04/24 02:57:36;;;;;;;5.97;4.50;;;23.40;51.60;;;;;;5018984;28;20431;-86
2022/04/24 03:00:03;;;;;;;5.70;4.57;;;23.40;51.60;;;;;;5015858;28;20669;-86
2022/04/24 03:02:29;;;;;;;4.90;4.40;;;23.40;51.60;;;;;;4999622;28;20434;-86
2022/04/24 03:04:55;;;;;;;6.07;4.50;;;23.40;51.60;;;;;;5024589;28;20392;-86
2022/04/24 03:07:21;;;;;;;4.13;3.73;;;23.40;51.60;;;;;;5013594;28;20733;-86
2022/04/24 03:09:47;;;;;;;5.43;4.33;;;23.40;51.60;;;;;;5012689;28;20424;-86
2022/04/24 03:12:13;;;;;;;5.57;4.43;;;23.40;51.60;;;;;;5025421;28;20650;-85
2022/04/24 03:18:01;;;;;;;4.13;3.60;;;23.40;51.60;;;;;;5032978;28;20206;-86
2022/04/24 03:20:28;;;;;;;4.43;3.90;;;23.30;51.60;;;;;;5015635;28;20451;-86
2022/04/24 03:22:54;;;;;;;4.37;3.83;;;23.40;51.70;;;;;;5012441;28;20177;-86
2022/04/24 03:25:21;;;;;;;4.83;4.40;;;23.30;51.60;;;;;;5012576;28;20492;-85
2022/04/24 03:27:47;;;;;;;4.60;4.10;;;23.40;51.70;;;;;;5011518;28;20208;-86
2022/04/24 03:30:12;;;;;;;4.90;4.40;;;23.40;51.70;;;;;;5015976;28;20442;-85
2022/04/24 03:32:38;;;;;;;4.33;3.93;;;23.40;51.70;;;;;;5015857;28;20243;-86
2022/04/24 03:35:07;;;;;;;4.60;3.67;;;23.30;51.60;;;;;;5032576;28;20177;-86
2022/04/24 03:37:33;;;;;;;5.17;4.27;;;23.40;51.60;;;;;;4999883;28;20184;-86
2022/04/24 03:39:59;;;;;;;5.07;4.53;;;23.40;51.60;;;;;;5015811;28;20427;-86
2022/04/24 03:42:26;;;;;;;4.27;3.80;;;23.40;51.60;;;;;;4999018;28;20207;-86
2022/04/24 03:44:56;;;;;;;5.60;4.17;;;23.30;51.50;;;;;;5015341;28;20419;-86
2022/04/24 03:47:22;;;;;;;5.37;4.87;;;23.40;51.60;;;;;;5016015;28;20459;-85
2022/04/24 03:49:48;;;;;;;4.43;4.03;;;23.40;51.60;;;;;;5015688;28;20407;-86
2022/04/24 03:52:15;;;;;;;4.33;3.93;;;23.40;51.60;;;;;;4999408;28;20588;-85
2022/04/24 03:54:41;;;;;;;3.73;3.40;;;23.40;51.60;;;;;;5014900;28;20428;-86
2022/04/24 03:57:07;;;;;;;4.00;3.60;;;23.40;51.60;;;;;;5015154;28;20466;-86
2022/04/24 03:59:34;;;;;;;4.83;3.77;;;23.40;51.60;;;;;;5015906;28;20183;-86
2022/04/24 04:02:00;;;;;;;4.17;3.57;;;23.40;51.60;;;;;;5032250;28;20411;-85
2022/04/24 04:04:27;;;;;;;4.37;3.90;;;23.30;51.50;;;;;;5029195;28;20423;-86
2022/04/24 04:06:56;;;;;;;4.23;3.83;;;23.40;51.60;;;;;;5027776;28;20518;-86
2022/04/24 04:09:22;;;;;;;4.50;4.10;;;23.40;51.60;;;;;;5022372;28;20415;-86
2022/04/24 04:11:48;;;;;;;4.37;3.83;;;23.30;51.50;;;;;;5011213;28;20423;-86
2022/04/24 04:14:14;;;;;;;4.53;4.13;;;23.30;51.60;;;;;;5027697;28;20424;-85
2022/04/24 04:16:41;;;;;;;4.57;3.97;;;23.30;51.50;;;;;;5008520;28;20416;-85
2022/04/24 04:19:07;;;;;;;4.20;3.80;;;23.30;51.50;;;;;;5011317;28;20203;-86
2022/04/24 04:21:33;;;;;;;3.50;3.20;;;23.30;51.60;;;;;;5022890;28;20913;-86
2022/04/24 04:23:59;;;;;;;3.60;3.30;;;23.30;51.50;;;;;;5026509;28;20181;-85
2022/04/24 04:26:24;;;;;;;4.00;3.33;;;23.30;51.50;;;;;;5023557;28;20176;-86
2022/04/24 04:28:51;;;;;;;4.20;3.27;;;23.30;51.50;;;;;;5010670;28;20582;-86
2022/04/24 04:31:17;;;;;;;3.60;2.73;;;23.30;51.50;;;;;;5026936;28;20176;-85
2022/04/24 04:33:45;;;;;;;3.77;3.33;;;23.30;51.50;;;;;;5010974;28;20420;-86
2022/04/24 04:36:12;;;;;;;3.80;3.40;;;23.30;51.50;;;;;;5008975;28;20443;-86
2022/04/24 04:38:38;;;;;;;3.60;3.13;;;23.30;51.60;;;;;;5028526;28;20450;-85
2022/04/24 04:41:04;;;;;;;4.10;3.53;;;23.30;51.50;;;;;;5027728;28;20533;-85
2022/04/24 04:43:31;;;;;;;4.13;3.73;;;23.30;51.50;;;;;;5018067;28;20176;-86
2022/04/24 04:45:57;;;;;;;4.13;3.50;;;23.30;51.60;;;;;;5018602;28;20419;-86
2022/04/24 04:48:25;;;;;;;4.23;3.57;;;23.30;51.60;;;;;;5017453;28;20474;-85
2022/04/24 04:50:51;;;;;;;4.30;3.87;;;23.30;51.60;;;;;;5018040;28;20454;-86
2022/04/24 04:53:18;;;;;;;3.90;3.50;;;23.30;51.60;;;;;;5035059;28;20442;-85
2022/04/24 04:55:44;;;;;;;4.37;3.47;;;23.30;51.60;;;;;;5016841;28;20412;-86
2022/04/24 04:58:10;;;;;;;3.47;3.03;;;23.30;51.60;;;;;;5018100;28;20180;-85
2022/04/24 05:00:36;;;;;;;4.20;3.70;;;23.30;51.60;;;;;;5019014;28;20423;-86
2022/04/24 05:03:02;;;;;;;4.00;3.60;;;23.30;51.60;;;;;;5035771;28;20181;-86
2022/04/24 05:05:28;;;;;;;4.60;4.20;;;23.30;51.60;;;;;;5035871;28;20607;-85
2022/04/24 05:07:53;;;;;;;3.87;3.33;;;23.30;51.60;;;;;;5018158;28;20274;-85
2022/04/24 05:10:19;;;;;;;3.70;3.30;;;23.30;51.60;;;;;;5018131;28;20172;-86
2022/04/24 05:12:45;;;;;;;3.97;3.60;;;23.30;51.50;;;;;;5035378;28;20175;-85
2022/04/24 05:15:13;;;;;;;3.83;3.50;;;23.30;51.50;;;;;;5035400;28;20219;-86
2022/04/24 05:17:41;;;;;;;4.27;3.67;;;23.40;51.60;;;;;;5018359;28;20284;-86
2022/04/24 05:20:11;;;;;;;4.03;3.60;;;23.30;51.50;;;;;;5035265;28;20487;-86
2022/04/24 05:22:38;;;;;;;5.10;3.83;;;23.40;51.60;;;;;;5018843;28;20451;-86
2022/04/24 05:25:06;;;;;;;3.70;3.30;;;23.40;51.60;;;;;;5034490;28;20498;-85
2022/04/24 05:27:32;;;;;;;4.73;3.90;;;23.40;52.10;;;;;;5017607;28;20459;-85
2022/04/24 05:30:07;;;;;;;4.77;4.03;;;23.40;51.60;;;;;;5017794;28;20443;-86
2022/04/24 05:32:48;;;;;;;3.73;3.00;;;23.40;51.50;;;;;;5035068;28;20387;-85
2022/04/24 05:35:14;;;;;;;3.90;3.57;;;23.40;51.50;;;;;;5035102;28;20829;-86
2022/04/24 05:37:40;;;;;;;4.17;3.43;;;23.40;51.50;;;;;;5034337;28;20439;-86
2022/04/24 05:40:07;;;;;;;3.90;3.50;;;23.40;51.50;;;;;;5017421;28;20419;-86
2022/04/24 05:42:33;;;;;;;3.83;3.13;;;23.40;51.50;;;;;;5017714;28;20412;-86
2022/04/24 05:45:09;;;;;;;3.70;3.40;;;23.40;51.50;;;;;;5034742;28;20510;-85
2022/04/24 05:47:34;;;;;;;3.70;3.10;;;23.40;51.50;;;;;;5017259;28;20541;-85
2022/04/24 05:50:00;;;;;;;3.47;3.17;;;23.30;51.40;;;;;;5033917;28;20446;-86
2022/04/24 05:52:28;;;;;;;3.43;3.13;;;23.40;51.50;;;;;;5034427;28;20176;-85
2022/04/24 05:54:54;;;;;;;3.67;3.37;;;23.40;51.50;;;;;;5034697;28;20169;-86
2022/04/24 05:57:20;;;;;;;3.40;3.10;;;23.40;51.50;;;;;;5016332;28;20422;-84
2022/04/24 05:59:46;;;;;;;4.10;3.40;;;23.40;51.50;;;;;;5017412;28;20179;-86
2022/04/24 06:02:12;;;;;;;3.50;3.20;;;23.40;51.50;;;;;;5016966;28;20176;-85
2022/04/24 06:04:42;;;;;;;3.57;3.20;;;23.40;51.50;;;;;;5015137;28;20430;-85
2022/04/24 06:07:10;;;;;;;3.70;3.30;;;23.40;51.50;;;;;;5015745;28;20476;-85
2022/04/24 06:09:36;;;;;;;3.60;2.93;;;23.40;51.50;;;;;;5032807;28;20439;-84
2022/04/24 06:12:02;;;;;;;4.30;3.50;;;23.40;51.50;;;;;;5032089;28;20940;-85
2022/04/24 06:14:28;;;;;;;4.83;3.37;;;23.40;51.50;;;;;;5034193;28;20461;-85
2022/04/24 06:16:55;;;;;;;3.03;2.73;;;23.40;51.50;;;;;;5033507;28;20403;-85
2022/04/24 06:19:21;;;;;;;3.27;2.97;;;23.40;51.40;;;;;;5033985;28;20415;-85
2022/04/24 06:21:47;;;;;;;3.13;2.83;;;23.40;51.40;;;;;;5034296;28;20426;-85
2022/04/24 06:24:12;;;;;;;3.90;2.60;;;23.40;51.40;;;;;;5034559;28;20439;-85
2022/04/24 06:26:39;;;;;;;3.87;3.00;;;23.40;51.40;;;;;;5017083;28;20157;-85
2022/04/24 06:29:05;;;;;;;3.70;3.27;;;23.40;51.40;;;;;;5015990;28;20208;-85
2022/04/24 06:31:31;;;;;;;3.33;3.00;;;23.40;51.40;;;;;;5016068;28;20425;-85
2022/04/24 06:33:58;;;;;;;3.23;2.93;;;23.40;51.40;;;;;;4983438;28;20218;-84
2022/04/24 06:36:31;;;;;;;3.80;2.60;;;23.40;51.40;;;;;;5033512;28;20391;-85
2022/04/24 06:39:00;;;;;;;3.37;2.90;;;23.40;51.40;;;;;;5015518;28;20427;-85
2022/04/24 06:41:26;;;;;;;3.13;2.70;;;23.40;51.40;;;;;;5015086;28;20180;-85
2022/04/24 06:43:52;;;;;;;2.63;2.30;;;23.50;51.40;;;;;;5032580;28;20415;-84
2022/04/24 06:46:19;;;;;;;3.57;3.10;;;23.40;51.40;;;;;;5033662;28;20411;-84
2022/04/24 06:48:45;;;;;;;3.17;2.87;;;23.40;51.40;;;;;;5033655;28;20212;-84
2022/04/24 06:51:10;;;;;;;3.53;3.23;;;23.40;51.40;;;;;;5032780;28;20462;-84
2022/04/24 06:53:38;;;;;;;3.30;3.00;;;23.50;51.40;;;;;;5032871;28;20234;-84
2022/04/24 06:56:04;;;;;;;2.73;2.53;;;23.50;51.50;;;;;;5016500;28;20152;-84
2022/04/24 06:58:30;;;;;;;3.23;2.93;;;23.50;51.40;;;;;;5016019;28;20419;-84
2022/04/24 07:00:57;;;;;;;3.53;2.80;;;23.50;51.40;;;;;;5016819;28;20503;-84
2022/04/24 07:03:28;;;;;;;3.03;2.73;;;23.50;51.40;;;;;;5016651;28;20446;-84
2022/04/24 07:05:57;;;;;;;3.10;2.80;;;23.40;51.30;;;;;;5016695;28;20412;-85
2022/04/24 07:08:24;;;;;;;3.20;2.90;;;23.50;51.40;;;;;;5016915;28;20459;-85
2022/04/24 07:10:50;;;;;;;3.10;2.63;;;23.50;51.40;;;;;;5016282;28;20450;-85
2022/04/24 07:13:17;;;;;;;2.40;2.00;;;23.50;51.40;;;;;;5033237;28;20506;-85
2022/04/24 07:15:43;;;;;;;2.70;2.50;;;23.50;51.40;;;;;;4983850;28;20415;-85
2022/04/24 07:18:10;;;;;;;2.90;2.60;;;23.50;51.40;;;;;;5015747;28;20431;-85
2022/04/24 07:20:38;;;;;;;2.83;2.53;;;23.50;51.40;;;;;;5017077;28;20483;-85
2022/04/24 07:23:08;;;;;;;2.73;2.53;;;23.50;51.40;;;;;;5015856;28;20857;-84
2022/04/24 07:25:40;;;;;;;3.47;2.50;;;23.50;51.40;;;;;;5016941;28;20430;-85
2022/04/24 07:28:07;;;;;;;3.30;2.63;;;23.50;51.40;;;;;;5033274;28;20447;-85
2022/04/24 07:30:34;;;;;;;3.23;2.93;;;23.50;51.40;;;;;;5015474;28;20442;-85
2022/04/24 07:33:00;;;;;;;3.80;2.63;;;23.50;51.40;;;;;;4999597;28;20411;-85
2022/04/24 07:35:28;;;;;;;2.73;2.30;;;23.50;51.40;;;;;;5032545;28;20475;-85
2022/04/24 07:37:55;;;;;;;3.20;2.90;;;23.50;51.40;;;;;;5033065;28;20403;-84
2022/04/24 07:40:22;;;;;;;2.93;2.60;;;23.50;51.40;;;;;;5015131;28;20483;-84
2022/04/24 07:42:56;;;;;;;3.10;2.67;;;23.50;51.40;;;;;;5015056;28;20430;-84
2022/04/24 07:45:49;;;;;;;4.10;2.77;;;23.50;51.40;;;;;;5032930;28;20399;-83
2022/04/24 07:48:18;;;;;;;3.10;2.60;;;23.50;51.40;;;;;;5015590;28;20462;-83
2022/04/24 07:50:52;;;;;;;3.13;2.83;;;23.50;51.40;;;;;;5030940;28;20414;-83
2022/04/24 07:53:20;;;;;;;2.50;2.30;;;23.50;51.40;;;;;;5033869;28;20419;-83
2022/04/24 07:55:48;;;;;;;2.80;2.60;;;23.50;51.40;;;;;;5033055;28;20403;-82
2022/04/24 07:58:15;;;;;;;3.67;3.03;;;23.50;51.40;;;;;;4999200;28;20450;-84
2022/04/24 08:00:43;;;;;;;2.47;2.20;;;23.50;51.40;;;;;;5015356;28;20419;-84
2022/04/24 08:03:13;;;;;;;2.63;2.43;;;23.50;51.40;;;;;;5014223;28;20466;-86
2022/04/24 08:05:45;;;;;;;2.30;2.10;;;23.50;51.40;;;;;;5032024;28;20743;-85
2022/04/24 08:08:15;;;;;;;2.23;2.03;;;23.50;51.40;;;;;;5014909;28;20453;-84
2022/04/24 08:10:47;;;;;;;2.70;2.37;;;23.50;51.40;;;;;;5014140;28;20414;-84
2022/04/24 08:13:14;;;;;;;2.63;2.40;;;23.50;51.40;;;;;;5021171;28;20476;-83
2022/04/24 08:15:46;;;;;;;2.87;2.30;;;23.50;51.40;;;;;;5013520;28;20431;-84
2022/04/24 08:18:13;;;;;;;2.50;2.30;;;23.50;51.40;;;;;;5032353;28;20395;-84
2022/04/24 08:20:42;;;;;;;2.80;2.40;;;23.50;51.40;;;;;;5015112;28;20434;-84
2022/04/24 08:23:09;;;;;;;2.20;2.00;;;23.50;51.40;;;;;;5015363;28;20396;-84
2022/04/24 08:25:37;;;;;;;2.87;2.43;;;23.50;51.40;;;;;;5014949;28;20494;-84
2022/04/24 08:28:08;;;;;;;2.80;2.37;;;23.50;51.40;;;;;;5014551;28;20463;-84
2022/04/24 08:30:38;;;;;;;3.33;2.60;;;23.50;51.40;;;;;;5031650;28;20430;-84
2022/04/24 08:33:04;;;;;;;2.40;2.20;;;23.50;51.40;;;;;;5015408;28;20407;-84
2022/04/24 08:35:30;;;;;;;3.00;2.73;;;23.50;51.40;;;;;;5013841;28;20419;-85
2022/04/24 08:37:59;;;;;;;2.80;2.00;;;23.50;51.40;;;;;;5014558;28;20411;-84
2022/04/24 08:40:25;;;;;;;2.70;2.30;;;23.50;51.40;;;;;;5032269;28;20411;-84
2022/04/24 08:42:52;;;;;;;2.53;2.33;;;23.50;51.40;;;;;;5032663;28;20482;-84
2022/04/24 08:45:18;;;;;;;2.70;2.13;;;23.50;51.40;;;;;;5014704;28;20177;-83
2022/04/24 08:47:44;;;;;;;2.20;2.00;;;23.60;51.40;;;;;;5013824;28;20453;-85
2022/04/24 08:50:12;;;;;;;3.20;2.60;;;23.60;51.40;;;;;;5012948;28;20176;-84
2022/04/24 08:52:43;;;;;;;3.00;2.40;;;23.50;51.40;;;;;;5013743;28;20446;-85
2022/04/24 08:55:09;;;;;;;2.37;2.00;;;23.60;51.40;;;;;;5010316;28;20412;-85
2022/04/24 08:57:35;;;;;;;2.30;2.10;;;23.60;51.40;;;;;;5008671;28;20451;-85
2022/04/24 09:00:02;;;;;;;2.70;2.40;;;23.50;51.40;;;;;;4992802;28;20424;-86
2022/04/24 09:02:28;;;;;;;2.40;2.20;;;23.60;51.40;;;;;;4992949;28;20187;-86
2022/04/24 09:04:56;;;;;;;2.33;2.13;;;23.60;51.40;;;;;;5009489;28;20404;-86
2022/04/24 09:07:31;;;;;;;2.40;2.20;;;23.50;51.30;;;;;;5011553;28;20452;-85
2022/04/24 09:09:57;;;;;;;2.37;2.17;;;23.60;51.40;;;;;;5010549;28;20413;-86
2022/04/24 09:12:28;;;;;;;2.60;2.40;;;23.60;51.40;;;;;;5010133;28;20451;-86
2022/04/24 09:14:57;;;;;;;2.70;2.27;;;23.60;51.40;;;;;;5011237;28;20419;-86
2022/04/24 09:17:32;;;;;;;3.70;2.40;;;23.60;51.40;;;;;;4994455;28;20483;-85
2022/04/24 09:19:59;;;;;;;2.23;1.83;;;23.60;51.40;;;;;;5016591;28;20465;-85
2022/04/24 09:22:25;;;;;;;2.43;2.23;;;23.60;51.40;;;;;;5033351;28;20410;-86
2022/04/24 09:24:56;;;;;;;2.20;2.00;;;23.60;51.40;;;;;;5033174;28;20468;-85
2022/04/24 09:27:32;;;;;;;2.27;1.90;;;23.60;51.40;;;;;;5036177;28;20945;-86
2022/04/24 09:29:59;;;;;;;2.53;2.33;;;23.60;51.40;;;;;;5023827;28;20415;-85
2022/04/24 09:32:30;;;;;;;2.43;2.23;;;23.60;51.40;;;;;;5016306;28;20449;-85
2022/04/24 09:34:56;;;;;;;2.67;2.20;;;23.60;51.40;;;;;;5017522;28;20418;-85
2022/04/24 09:37:23;;;;;;;2.50;2.30;;;23.60;51.40;;;;;;5016935;28;20420;-85
2022/04/24 09:39:50;;;;;;;2.63;2.30;;;23.60;51.40;;;;;;5017386;28;20425;-85
2022/04/24 09:42:18;;;;;;;2.00;1.80;;;23.50;51.30;;;;;;5016423;28;20423;-85
2022/04/24 09:44:45;;;;;;;2.03;1.80;;;23.60;51.40;;;;;;5033712;28;20407;-85
2022/04/24 09:47:12;;;;;;;1.90;1.70;;;23.60;51.40;;;;;;5017231;28;20455;-85
2022/04/24 09:49:45;;;;;;;2.23;2.03;;;23.60;51.40;;;;;;5034425;28;20396;-85
2022/04/24 09:52:13;;;;;;;2.20;2.00;;;23.60;51.40;;;;;;5033849;28;20459;-85
2022/04/24 09:54:45;;;;;;;2.20;2.00;;;23.60;51.40;;;;;;5032816;28;20420;-85
2022/04/24 09:57:14;;;;;;;2.63;2.03;;;23.60;51.40;;;;;;5034112;28;20878;-85
2022/04/24 09:59:43;;;;;;;2.43;2.20;;;23.60;51.40;;;;;;5012362;28;20433;-84
2022/04/24 10:02:14;;;;;;;2.17;1.97;;;23.60;51.40;;;;;;5012995;28;20416;-86
2022/04/24 10:04:42;;;;;;;3.07;2.40;;;23.60;51.40;;;;;;5013716;28;20487;-84
2022/04/24 10:07:11;;;;;;;2.10;1.90;;;23.60;51.40;;;;;;5014521;28;20483;-85
2022/04/24 10:09:40;;;;;;;1.80;1.70;;;23.60;51.40;;;;;;5014080;28;20500;-86
2022/04/24 10:12:09;;;;;;;2.10;1.90;;;23.60;51.40;;;;;;5013859;28;20412;-84
2022/04/24 10:14:56;;;;;;;2.20;1.80;;;23.60;51.40;;;;;;5013985;28;20417;-85
2022/04/24 10:17:58;;;;;;;2.13;1.90;;;23.60;51.40;;;;;;5013918;28;20401;-85
2022/04/24 10:20:45;;;;;;;1.90;1.63;;;23.60;51.40;;;;;;4996572;28;20444;-86
2022/04/24 10:23:12;;;;;;;1.97;1.70;;;23.60;51.40;;;;;;4995733;28;20420;-85
2022/04/24 10:25:42;;;;;;;1.70;1.60;;;23.60;51.50;;;;;;5019101;28;20423;-85
2022/04/24 10:28:16;;;;;;;1.93;1.73;;;23.60;51.40;;;;;;5015955;28;20850;-85
2022/04/24 10:30:44;;;;;;;1.83;1.70;;;23.60;51.40;;;;;;5033216;28;20394;-85
2022/04/24 10:33:23;;;;;;;2.37;1.97;;;23.60;51.40;;;;;;5016607;28;20420;-85
2022/04/24 10:36:02;;;;;;;2.20;2.00;;;23.60;51.40;;;;;;5026468;28;20400;-85
2022/04/24 10:38:34;;;;;;;2.00;1.80;;;23.60;51.40;;;;;;5013772;28;20393;-86
2022/04/24 10:41:14;;;;;;;2.50;2.10;;;23.60;51.40;;;;;;5029198;28;20411;-86
2022/04/24 10:43:46;;;;;;;2.53;2.00;;;23.60;51.40;;;;;;5018565;28;20432;-85
2022/04/24 10:46:39;;;;;;;1.70;1.60;;;23.60;51.40;;;;;;5013525;28;20404;-86
2022/04/24 10:49:14;;;;;;;2.53;2.30;;;23.60;51.40;;;;;;5012562;28;20488;-85
2022/04/24 10:51:42;;;;;;;1.93;1.73;;;23.60;51.50;;;;;;5013084;28;20416;-86
2022/04/24 10:54:13;;;;;;;2.37;1.63;;;23.60;51.50;;;;;;5030929;28;20443;-86
2022/04/24 10:56:51;;;;;;;2.30;1.90;;;23.60;51.40;;;;;;4999405;28;20439;-85
2022/04/24 10:59:23;;;;;;;2.30;1.90;;;23.60;51.40;;;;;;5014875;28;20434;-86
2022/04/24 11:01:54;;;;;;;2.27;1.90;;;23.60;51.40;;;;;;5015015;28;20431;-86
2022/04/24 11:04:22;;;;;;;2.33;2.00;;;23.60;51.40;;;;;;5015764;28;20921;-86
2022/04/24 11:06:59;;;;;;;2.40;1.83;;;23.60;51.40;;;;;;5015753;28;20447;-85
2022/04/24 11:09:31;;;;;;;2.50;2.17;;;23.60;51.40;;;;;;5015583;28;20439;-85
2022/04/24 11:12:01;;;;;;;1.60;1.40;;;23.70;51.50;;;;;;5032405;28;20388;-85
2022/04/24 11:14:28;;;;;;;2.00;1.77;;;23.60;51.40;;;;;;5031988;28;20411;-86
2022/04/24 11:16:57;;;;;;;2.10;1.90;;;23.70;51.50;;;;;;5015577;28;20415;-85
2022/04/24 11:19:25;;;;;;;2.27;1.97;;;23.70;51.50;;;;;;5032614;28;20431;-85
2022/04/24 11:22:08;;;;;;;2.37;1.90;;;23.70;51.40;;;;;;5015745;28;20415;-86
2022/04/24 11:24:40;;;;;;;2.03;1.77;;;23.60;51.40;;;;;;5032773;28;20423;-86
2022/04/24 11:27:12;;;;;;;1.60;1.50;;;23.70;52.00;;;;;;5032735;28;20403;-86
2022/04/24 11:29:39;;;;;;;2.53;2.10;;;23.70;51.40;;;;;;5015544;28;20490;-86
2022/04/24 11:32:11;;;;;;;2.17;1.60;;;23.70;51.40;;;;;;5013358;28;20408;-85
2022/04/24 11:34:37;;;;;;;1.70;1.50;;;23.70;51.50;;;;;;5031703;28;20399;-86
2022/04/24 11:37:04;;;;;;;1.70;1.60;;;23.70;51.40;;;;;;5031802;28;20451;-86
2022/04/24 11:39:31;;;;;;;1.77;1.67;;;23.70;51.50;;;;;;5013044;28;20424;-86
2022/04/24 11:41:58;;;;;;;1.73;1.63;;;23.70;51.50;;;;;;5031932;28;20403;-86
2022/04/24 11:50:15;;;;;;;2.17;1.83;;;23.70;51.40;;;;;;5031448;28;20407;-85
2022/04/24 11:52:46;;;;;;;1.80;1.50;;;23.70;51.50;;;;;;5032021;28;20384;-85
2022/04/24 11:55:23;;;;;;;2.23;1.97;;;23.70;51.50;;;;;;5032452;28;20415;-85
2022/04/24 11:57:59;;;;;;;2.30;1.70;;;23.70;51.50;;;;;;5014800;28;20438;-86
2022/04/24 12:00:37;;;;;;;1.60;1.17;;;23.70;52.10;;;;;;5031604;28;20936;-86
2022/04/24 12:03:05;;;;;;;1.80;1.47;;;23.70;51.50;;;;;;5014080;28;20416;-86
2022/04/24 12:05:32;;;;;;;2.10;1.80;;;23.70;51.50;;;;;;5014154;28;20415;-86
2022/04/24 12:07:58;;;;;;;1.77;1.50;;;23.70;51.50;;;;;;5015507;28;20542;-85
2022/04/24 12:10:27;;;;;;;1.67;1.57;;;23.70;51.50;;;;;;5033382;28;20418;-85
2022/04/24 12:12:54;;;;;;;1.90;1.50;;;23.70;51.50;;;;;;5015090;28;20446;-85
2022/04/24 12:15:23;;;;;;;2.10;1.90;;;23.70;51.50;;;;;;5016800;28;20415;-84
2022/04/24 12:18:07;;;;;;;2.10;1.90;;;23.70;51.50;;;;;;4999800;28;20446;-84
2022/04/24 12:20:40;;;;;;;1.87;1.60;;;23.70;51.50;;;;;;5016649;28;20439;-85
2022/04/24 12:23:11;;;;;;;1.83;1.50;;;23.70;51.40;;;;;;5033887;28;20411;-84
2022/04/24 12:25:57;;;;;;;1.87;1.60;;;23.70;51.40;;;;;;5016275;28;20419;-84
2022/04/24 12:28:39;;;;;;;2.20;1.60;;;23.70;51.40;;;;;;5016714;28;20500;-84
2022/04/24 12:31:06;;;;;;;1.97;1.70;;;23.70;51.40;;;;;;5032545;28;20395;-85
2022/04/24 12:33:44;;;;;;;1.63;1.30;;;23.70;51.50;;;;;;5013937;28;20438;-85
2022/04/24 12:36:15;;;;;;;1.93;1.73;;;23.70;51.50;;;;;;5031646;28;20441;-85
2022/04/24 12:38:52;;;;;;;1.70;1.53;;;23.70;51.50;;;;;;5023673;28;20427;-85
2022/04/24 12:41:23;;;;;;;1.90;1.80;;;23.70;51.40;;;;;;4995945;28;20411;-84
2022/04/24 12:43:50;;;;;;;1.80;1.50;;;23.70;51.40;;;;;;4995836;28;20408;-85
2022/04/24 12:46:16;;;;;;;1.63;1.50;;;23.70;51.40;;;;;;4979612;28;20420;-85
2022/04/24 12:48:49;;;;;;;2.57;1.83;;;23.70;51.40;;;;;;4995627;28;20795;-85
2022/04/24 12:51:15;;;;;;;1.50;1.40;;;23.70;51.40;;;;;;4979981;28;20436;-84
2022/04/24 12:53:41;;;;;;;1.80;1.57;;;23.70;51.40;;;;;;5013810;28;20405;-85
2022/04/24 12:56:10;;;;;;;1.40;1.30;;;23.70;51.40;;;;;;5008449;28;20506;-84
2022/04/24 12:58:37;;;;;;;2.13;1.93;;;23.70;51.40;;;;;;5016681;28;20419;-84
2022/04/24 13:01:05;;;;;;;1.90;1.60;;;23.70;51.40;;;;;;5035898;28;20446;-84
2022/04/24 13:03:32;;;;;;;1.90;1.70;;;23.70;51.50;;;;;;5002979;28;20427;-84